Time;durP1;ratioP1;P1;durP2;ratioP2;P2;SDS_P1;SDS_P2;PMS_P1;PMS_P2;Temp;Humidity;BMP_temperature;BMP_pressure;BME280_temperature;BME280_humidity;BME280_pressure;Samples;Min_cycle;Max_cycle;Signal;HPM_P1;HPM_P2
2023/05/23 00:01:17;;;;;;;58.83;3.63;;;;;;;;;;5062557;28;20850;-69
2023/05/23 00:03:44;;;;;;;58.80;3.00;;;;;;;;;;5065660;28;20488;-69
2023/05/23 00:06:13;;;;;;;59.40;3.97;;;;;;;;;;5070574;28;20949;-69
2023/05/23 00:08:40;;;;;;;58.87;2.97;;;;;;;;;;5062984;28;20471;-69
2023/05/23 00:11:07;;;;;;;58.80;4.03;;;;;;;;;;5062705;28;20485;-69
2023/05/23 00:13:35;;;;;;;57.87;3.27;;;;;;;;;;5073312;28;20820;-69
2023/05/23 00:16:02;;;;;;;59.07;4.33;;;;;;;;;;5064587;28;20468;-69
2023/05/23 00:18:29;;;;;;;62.20;4.73;;;;;;;;;;5059663;28;20464;-69
2023/05/23 00:20:58;;;;;;;62.90;4.33;;;;;;;;;;5064731;28;20883;-69
2023/05/23 00:23:28;;;;;;;59.40;3.80;;;;;;;;;;5070717;28;20995;-69
2023/05/23 00:25:57;;;;;;;60.00;4.03;;;;;;;;;;5069204;28;20470;-69
2023/05/23 00:28:24;;;;;;;60.70;4.20;;;;;;;;;;5066223;28;20545;-69
2023/05/23 00:30:51;;;;;;;58.97;4.87;;;;;;;;;;5061180;28;20582;-69
2023/05/23 00:33:20;;;;;;;58.97;3.90;;;;;;;;;;5070713;28;20567;-69
2023/05/23 00:35:48;;;;;;;58.60;4.40;;;;;;;;;;5064442;28;20468;-69
2023/05/23 00:38:15;;;;;;;59.30;4.30;;;;;;;;;;5072551;28;20899;-69
2023/05/23 00:40:44;;;;;;;58.97;4.17;;;;;;;;;;5057466;28;20893;-69
2023/05/23 00:43:11;;;;;;;58.60;3.80;;;;;;;;;;5070829;28;20475;-69
2023/05/23 00:45:38;;;;;;;58.90;4.70;;;;;;;;;;5071685;28;20831;-70
2023/05/23 00:48:07;;;;;;;60.27;5.20;;;;;;;;;;5060329;28;20463;-69
2023/05/23 00:50:35;;;;;;;60.10;4.30;;;;;;;;;;5061241;28;20467;-69
2023/05/23 00:53:02;;;;;;;57.90;3.07;;;;;;;;;;5062480;28;20464;-69
2023/05/23 00:55:29;;;;;;;58.57;4.17;;;;;;;;;;5069044;28;20823;-69
2023/05/23 00:57:58;;;;;;;71.70;4.60;;;;;;;;;;5071758;28;21018;-69
2023/05/23 01:00:25;;;;;;;67.00;4.83;;;;;;;;;;5061906;28;20538;-69
2023/05/23 01:02:53;;;;;;;58.97;3.70;;;;;;;;;;5061329;28;20895;-69
2023/05/23 01:05:23;;;;;;;57.97;3.37;;;;;;;;;;5058908;28;20511;-69
2023/05/23 01:07:51;;;;;;;60.47;3.87;;;;;;;;;;5064785;28;20468;-69
2023/05/23 01:10:19;;;;;;;61.50;3.50;;;;;;;;;;5062142;28;20468;-69
2023/05/23 01:12:50;;;;;;;58.70;4.33;;;;;;;;;;5064328;28;20510;-69
2023/05/23 01:15:20;;;;;;;57.97;3.87;;;;;;;;;;5069674;28;20474;-69
2023/05/23 01:17:51;;;;;;;58.20;3.60;;;;;;;;;;5064349;28;20470;-69
2023/05/23 01:20:20;;;;;;;58.77;3.90;;;;;;;;;;5061395;28;20473;-69
2023/05/23 01:22:55;;;;;;;58.37;3.53;;;;;;;;;;5070277;28;20513;-69
2023/05/23 01:25:28;;;;;;;64.60;4.13;;;;;;;;;;5064240;28;21013;-69
2023/05/23 01:27:58;;;;;;;58.33;3.53;;;;;;;;;;5063357;28;20823;-69
2023/05/23 01:30:26;;;;;;;59.57;3.47;;;;;;;;;;5069748;28;20468;-69
2023/05/23 01:32:54;;;;;;;58.50;3.87;;;;;;;;;;5057338;28;20518;-69
2023/05/23 01:35:27;;;;;;;59.03;3.77;;;;;;;;;;5067173;28;21054;-69
2023/05/23 01:37:54;;;;;;;59.20;6.00;;;;;;;;;;5063962;28;20831;-69
2023/05/23 01:40:22;;;;;;;57.90;3.07;;;;;;;;;;5068565;28;20797;-69
2023/05/23 01:42:49;;;;;;;58.30;3.53;;;;;;;;;;5059075;28;20463;-69
2023/05/23 01:45:18;;;;;;;61.60;4.27;;;;;;;;;;5066722;28;20479;-69
2023/05/23 01:47:46;;;;;;;59.70;4.00;;;;;;;;;;5062386;28;20497;-69
2023/05/23 01:50:13;;;;;;;58.50;3.87;;;;;;;;;;5062453;28;20456;-69
2023/05/23 01:52:40;;;;;;;67.53;4.53;;;;;;;;;;5064575;28;21011;-69
2023/05/23 01:55:10;;;;;;;59.70;4.93;;;;;;;;;;5068930;28;20460;-69
2023/05/23 01:57:38;;;;;;;58.70;4.03;;;;;;;;;;5066573;28;20816;-69
2023/05/23 02:00:07;;;;;;;59.67;5.20;;;;;;;;;;5064307;28;20455;-69
2023/05/23 02:02:35;;;;;;;58.70;3.30;;;;;;;;;;5057598;28;20608;-69
2023/05/23 02:05:03;;;;;;;59.37;4.20;;;;;;;;;;5072307;28;20483;-69
2023/05/23 02:07:30;;;;;;;58.20;3.97;;;;;;;;;;5063650;28;20991;-69
2023/05/23 02:09:57;;;;;;;58.80;4.27;;;;;;;;;;5070479;28;20450;-69
2023/05/23 02:12:24;;;;;;;59.57;4.93;;;;;;;;;;5062237;28;20494;-69
2023/05/23 02:14:51;;;;;;;64.23;6.03;;;;;;;;;;5064855;28;20455;-69
2023/05/23 02:17:20;;;;;;;60.90;5.03;;;;;;;;;;5064123;28;20468;-69
2023/05/23 02:19:49;;;;;;;58.47;4.77;;;;;;;;;;5061237;28;20471;-69
2023/05/23 02:22:16;;;;;;;58.20;3.73;;;;;;;;;;5066148;28;20847;-69
2023/05/23 02:24:43;;;;;;;62.90;5.37;;;;;;;;;;5063863;28;20492;-69
2023/05/23 02:27:10;;;;;;;58.17;3.33;;;;;;;;;;5065602;28;20459;-69
2023/05/23 02:29:38;;;;;;;62.10;5.07;;;;;;;;;;5061739;28;21049;-69
2023/05/23 02:32:05;;;;;;;58.77;3.87;;;;;;;;;;5061882;28;20483;-69
2023/05/23 02:34:32;;;;;;;60.87;4.23;;;;;;;;;;5064394;28;20459;-69
2023/05/23 02:37:00;;;;;;;60.37;4.60;;;;;;;;;;5071342;28;20444;-69
2023/05/23 02:39:27;;;;;;;58.93;4.50;;;;;;;;;;5062922;28;20464;-69
2023/05/23 02:41:55;;;;;;;59.43;3.97;;;;;;;;;;5063123;28;20851;-69
2023/05/23 02:44:22;;;;;;;58.57;4.40;;;;;;;;;;5060011;28;20550;-69
2023/05/23 02:46:49;;;;;;;59.83;5.30;;;;;;;;;;5063651;28;20468;-69
2023/05/23 02:49:16;;;;;;;67.90;6.03;;;;;;;;;;5060005;28;20466;-69
2023/05/23 02:51:43;;;;;;;60.50;5.93;;;;;;;;;;5066753;28;21049;-69
2023/05/23 02:54:11;;;;;;;59.97;3.87;;;;;;;;;;5060249;28;20458;-69
2023/05/23 02:56:38;;;;;;;61.30;3.77;;;;;;;;;;5068278;28;20474;-69
2023/05/23 02:59:06;;;;;;;59.47;5.10;;;;;;;;;;5059824;28;20459;-69
2023/05/23 03:01:33;;;;;;;58.67;4.77;;;;;;;;;;5067616;28;21006;-69
2023/05/23 03:04:01;;;;;;;60.03;4.50;;;;;;;;;;5062930;28;20555;-69
2023/05/23 03:06:31;;;;;;;58.17;3.83;;;;;;;;;;5060843;28;20460;-69
2023/05/23 03:08:58;;;;;;;58.97;4.10;;;;;;;;;;5065872;28;20971;-69
2023/05/23 03:11:27;;;;;;;59.40;5.03;;;;;;;;;;5067379;28;20491;-69
2023/05/23 03:13:54;;;;;;;59.70;5.50;;;;;;;;;;5055855;28;20464;-69
2023/05/23 03:16:21;;;;;;;58.40;3.80;;;;;;;;;;5057048;28;20464;-69
2023/05/23 03:18:48;;;;;;;59.23;5.07;;;;;;;;;;5060325;28;20463;-69
2023/05/23 03:21:15;;;;;;;57.87;3.43;;;;;;;;;;5068662;28;20468;-69
2023/05/23 03:23:42;;;;;;;59.00;5.43;;;;;;;;;;5059613;28;20455;-69
2023/05/23 03:26:10;;;;;;;58.53;4.20;;;;;;;;;;5066424;28;20490;-69
2023/05/23 03:28:39;;;;;;;60.63;4.63;;;;;;;;;;5061368;28;20879;-69
2023/05/23 03:31:06;;;;;;;59.73;5.43;;;;;;;;;;5060968;28;20479;-69
2023/05/23 03:33:34;;;;;;;60.90;5.00;;;;;;;;;;5060622;28;20463;-69
2023/05/23 03:36:01;;;;;;;61.67;6.17;;;;;;;;;;5056995;28;20473;-69
2023/05/23 03:38:28;;;;;;;59.90;5.70;;;;;;;;;;5069016;28;20463;-69
2023/05/23 03:40:55;;;;;;;61.20;4.60;;;;;;;;;;5060540;28;20585;-69
2023/05/23 03:43:22;;;;;;;57.80;3.47;;;;;;;;;;5064638;28;20470;-69
2023/05/23 03:45:51;;;;;;;59.07;4.33;;;;;;;;;;5061623;28;20859;-69
2023/05/23 03:48:18;;;;;;;59.40;4.73;;;;;;;;;;5067889;28;20957;-69
2023/05/23 03:50:45;;;;;;;66.70;8.00;;;;;;;;;;5067031;28;20489;-69
2023/05/23 03:53:12;;;;;;;62.20;5.20;;;;;;;;;;5060589;28;20464;-69
2023/05/23 03:55:40;;;;;;;59.07;4.23;;;;;;;;;;5064686;28;20456;-69
2023/05/23 03:58:07;;;;;;;59.57;4.27;;;;;;;;;;5061408;28;20479;-69
2023/05/23 04:00:34;;;;;;;64.10;5.10;;;;;;;;;;5058299;28;20478;-69
2023/05/23 04:03:03;;;;;;;60.70;6.17;;;;;;;;;;5063144;28;20473;-69
2023/05/23 04:05:30;;;;;;;62.03;5.10;;;;;;;;;;5066396;28;20519;-69
2023/05/23 04:08:00;;;;;;;60.60;7.57;;;;;;;;;;5063375;28;20459;-69
2023/05/23 04:10:27;;;;;;;59.80;4.30;;;;;;;;;;5066507;28;20451;-69
2023/05/23 04:12:55;;;;;;;60.10;5.10;;;;;;;;;;5057655;28;20472;-69
2023/05/23 04:15:22;;;;;;;59.50;4.33;;;;;;;;;;5056845;28;20486;-69
2023/05/23 04:17:50;;;;;;;61.53;5.10;;;;;;;;;;5056962;28;20864;-69
2023/05/23 04:20:18;;;;;;;60.10;4.80;;;;;;;;;;5065393;28;20999;-69
2023/05/23 04:22:45;;;;;;;63.93;6.13;;;;;;;;;;5063168;28;20483;-69
2023/05/23 04:25:12;;;;;;;61.30;5.90;;;;;;;;;;5054279;28;20494;-69
2023/05/23 04:27:40;;;;;;;64.10;6.33;;;;;;;;;;5063139;28;20464;-69
2023/05/23 04:30:08;;;;;;;59.40;4.80;;;;;;;;;;5067569;28;20472;-69
2023/05/23 04:32:36;;;;;;;60.67;6.10;;;;;;;;;;5061674;28;20579;-69
2023/05/23 04:35:04;;;;;;;63.70;5.50;;;;;;;;;;5061621;28;20455;-69
2023/05/23 04:37:32;;;;;;;61.00;5.40;;;;;;;;;;5057635;28;20513;-69
2023/05/23 04:40:00;;;;;;;58.77;5.43;;;;;;;;;;5061858;28;20536;-69
2023/05/23 04:42:28;;;;;;;61.17;7.20;;;;;;;;;;5062455;28;20494;-69
2023/05/23 04:44:57;;;;;;;65.13;6.30;;;;;;;;;;5071756;28;20517;-69
2023/05/23 04:47:27;;;;;;;58.93;4.30;;;;;;;;;;5072518;28;20447;-69
2023/05/23 04:49:55;;;;;;;60.30;6.10;;;;;;;;;;5072397;28;20868;-69
2023/05/23 04:52:23;;;;;;;61.43;8.60;;;;;;;;;;5062025;28;21064;-69
2023/05/23 04:54:52;;;;;;;64.07;6.20;;;;;;;;;;5057228;28;20498;-69
2023/05/23 04:57:20;;;;;;;65.23;8.30;;;;;;;;;;5066540;28;20469;-69
2023/05/23 04:59:47;;;;;;;62.33;4.50;;;;;;;;;;5069086;28;20567;-69
2023/05/23 05:02:15;;;;;;;59.97;4.30;;;;;;;;;;5075905;28;20492;-69
2023/05/23 05:04:42;;;;;;;61.70;6.70;;;;;;;;;;5070942;28;20467;-69
2023/05/23 05:07:09;;;;;;;59.90;6.53;;;;;;;;;;5073129;28;20453;-69
2023/05/23 05:09:36;;;;;;;60.63;5.67;;;;;;;;;;5066538;28;20964;-69
2023/05/23 05:12:04;;;;;;;62.13;7.40;;;;;;;;;;5073024;28;20470;-69
2023/05/23 05:14:32;;;;;;;61.00;7.20;;;;;;;;;;5067719;28;20514;-69
2023/05/23 05:17:01;;;;;;;58.87;4.50;;;;;;;;;;5065788;28;20456;-69
2023/05/23 05:19:28;;;;;;;59.40;4.90;;;;;;;;;;5063492;28;20464;-69
2023/05/23 05:21:56;;;;;;;58.53;4.23;;;;;;;;;;5068498;28;20859;-69
2023/05/23 05:24:23;;;;;;;60.80;5.13;;;;;;;;;;5070860;28;20561;-69
2023/05/23 05:26:51;;;;;;;60.67;4.70;;;;;;;;;;5066268;28;20488;-69
2023/05/23 05:29:19;;;;;;;60.30;6.27;;;;;;;;;;5060405;28;20802;-69
2023/05/23 05:31:46;;;;;;;62.60;6.87;;;;;;;;;;5062236;28;20483;-69
2023/05/23 05:34:13;;;;;;;61.60;6.10;;;;;;;;;;5062467;28;20463;-69
2023/05/23 05:36:44;;;;;;;61.23;6.33;;;;;;;;;;5059891;28;20460;-69
2023/05/23 05:39:12;;;;;;;63.57;6.67;;;;;;;;;;5066963;28;20456;-69
2023/05/23 05:41:39;;;;;;;62.13;6.67;;;;;;;;;;5062122;28;20483;-69
2023/05/23 05:44:06;;;;;;;60.17;5.60;;;;;;;;;;5067234;28;20471;-69
2023/05/23 05:46:35;;;;;;;60.57;7.53;;;;;;;;;;5061051;28;20498;-69
2023/05/23 05:49:02;;;;;;;60.77;6.57;;;;;;;;;;5070750;28;20939;-69
2023/05/23 05:51:30;;;;;;;61.03;5.63;;;;;;;;;;5062182;28;20487;-69
2023/05/23 05:53:57;;;;;;;58.30;4.17;;;;;;;;;;5066456;28;20456;-69
2023/05/23 05:56:25;;;;;;;58.87;4.83;;;;;;;;;;5061018;28;20465;-69
2023/05/23 05:58:52;;;;;;;59.13;5.53;;;;;;;;;;5064006;28;20525;-69
2023/05/23 06:01:19;;;;;;;61.17;6.60;;;;;;;;;;5054576;28;21036;-69
2023/05/23 06:03:47;;;;;;;60.83;5.17;;;;;;;;;;5064692;28;20455;-69
2023/05/23 06:06:14;;;;;;;60.07;5.83;;;;;;;;;;5063387;28;20893;-69
2023/05/23 06:08:42;;;;;;;67.87;5.50;;;;;;;;;;5067047;28;20491;-69
2023/05/23 06:11:10;;;;;;;59.40;4.53;;;;;;;;;;5064871;28;20475;-69
2023/05/23 06:13:37;;;;;;;61.77;5.67;;;;;;;;;;5058958;28;20847;-69
2023/05/23 06:16:05;;;;;;;61.20;6.13;;;;;;;;;;5070132;28;20454;-69
2023/05/23 06:18:32;;;;;;;69.30;5.33;;;;;;;;;;5060859;28;20468;-69
2023/05/23 06:21:01;;;;;;;60.80;6.40;;;;;;;;;;5068196;28;20502;-69
2023/05/23 06:23:28;;;;;;;61.03;8.23;;;;;;;;;;5067415;28;20963;-70
2023/05/23 06:25:55;;;;;;;61.03;5.17;;;;;;;;;;5068916;28;20499;-70
2023/05/23 06:28:22;;;;;;;59.80;4.73;;;;;;;;;;5069074;28;20456;-69
2023/05/23 06:30:49;;;;;;;59.20;4.77;;;;;;;;;;5062982;28;20494;-69
2023/05/23 06:33:16;;;;;;;61.80;5.40;;;;;;;;;;5071554;28;20789;-69
2023/05/23 06:35:43;;;;;;;60.03;4.83;;;;;;;;;;5066421;28;20458;-69
2023/05/23 06:38:12;;;;;;;59.47;4.50;;;;;;;;;;5067325;28;20458;-69
2023/05/23 06:40:39;;;;;;;61.07;6.03;;;;;;;;;;5066907;28;20463;-69
2023/05/23 06:43:07;;;;;;;60.47;5.40;;;;;;;;;;5066849;28;20991;-69
2023/05/23 06:45:34;;;;;;;62.37;5.30;;;;;;;;;;5065352;28;20495;-69
2023/05/23 06:48:02;;;;;;;59.17;4.97;;;;;;;;;;5064892;28;20517;-69
2023/05/23 06:50:29;;;;;;;60.57;4.83;;;;;;;;;;5065553;28;20555;-69
2023/05/23 06:52:56;;;;;;;59.37;4.60;;;;;;;;;;5065633;28;20546;-69
2023/05/23 06:55:25;;;;;;;61.13;6.83;;;;;;;;;;5069351;28;20463;-69
2023/05/23 06:57:52;;;;;;;58.60;4.17;;;;;;;;;;5066285;28;20470;-69
2023/05/23 07:00:20;;;;;;;60.33;4.20;;;;;;;;;;5063726;28;20495;-69
2023/05/23 07:02:48;;;;;;;59.40;4.30;;;;;;;;;;5064627;28;20487;-69
2023/05/23 07:05:16;;;;;;;61.60;4.57;;;;;;;;;;5071098;28;20451;-69
2023/05/23 07:07:43;;;;;;;60.97;4.63;;;;;;;;;;5065118;28;20478;-69
2023/05/23 07:10:11;;;;;;;60.10;5.73;;;;;;;;;;5058818;28;20476;-69
2023/05/23 07:12:39;;;;;;;59.60;5.03;;;;;;;;;;5064757;28;20491;-69
2023/05/23 07:15:07;;;;;;;61.40;5.70;;;;;;;;;;5065680;28;20471;-69
2023/05/23 07:17:35;;;;;;;59.17;4.77;;;;;;;;;;5060585;28;20453;-69
2023/05/23 07:20:03;;;;;;;59.10;5.83;;;;;;;;;;5062699;28;20464;-69
2023/05/23 07:22:30;;;;;;;58.90;4.20;;;;;;;;;;5068176;28;20899;-69
2023/05/23 07:24:57;;;;;;;60.80;5.10;;;;;;;;;;5070843;28;20456;-69
2023/05/23 07:27:24;;;;;;;59.40;4.93;;;;;;;;;;5070860;28;21021;-69
2023/05/23 07:29:53;;;;;;;59.13;4.80;;;;;;;;;;5070548;28;20463;-69
2023/05/23 07:32:20;;;;;;;58.53;5.10;;;;;;;;;;5071195;28;20568;-69
2023/05/23 07:34:47;;;;;;;62.10;6.30;;;;;;;;;;5064383;28;20831;-69
2023/05/23 07:37:14;;;;;;;58.93;4.43;;;;;;;;;;5070833;28;20442;-69
2023/05/23 07:39:42;;;;;;;58.77;4.60;;;;;;;;;;5062257;28;20979;-69
2023/05/23 07:42:09;;;;;;;59.20;4.63;;;;;;;;;;5050813;28;20482;-69
2023/05/23 07:44:37;;;;;;;62.40;8.13;;;;;;;;;;5051274;28;20483;-69
2023/05/23 07:47:05;;;;;;;59.77;5.03;;;;;;;;;;5064637;28;21007;-69
2023/05/23 07:49:33;;;;;;;58.67;4.60;;;;;;;;;;5069994;28;20793;-69
2023/05/23 07:52:00;;;;;;;61.00;3.87;;;;;;;;;;5066429;28;21102;-69
2023/05/23 07:54:27;;;;;;;59.60;4.60;;;;;;;;;;5071011;28;20447;-69
2023/05/23 07:56:54;;;;;;;57.70;3.43;;;;;;;;;;5070989;28;20458;-69
2023/05/23 07:59:22;;;;;;;58.47;3.83;;;;;;;;;;5070059;28;20451;-69
2023/05/23 08:01:50;;;;;;;58.37;3.47;;;;;;;;;;5071216;28;20535;-69
2023/05/23 08:04:18;;;;;;;58.10;3.97;;;;;;;;;;5071245;28;20512;-70
2023/05/23 08:06:46;;;;;;;58.80;3.73;;;;;;;;;;5067058;28;20483;-69
2023/05/23 08:09:14;;;;;;;59.70;3.80;;;;;;;;;;5072903;28;20952;-69
2023/05/23 08:11:41;;;;;;;58.10;3.63;;;;;;;;;;5074660;28;20822;-69
2023/05/23 08:14:08;;;;;;;58.87;4.10;;;;;;;;;;5072521;28;20474;-69
2023/05/23 08:16:36;;;;;;;59.17;3.93;;;;;;;;;;5074243;28;20531;-69
2023/05/23 08:19:03;;;;;;;60.27;5.30;;;;;;;;;;5070048;28;20474;-69
2023/05/23 08:21:32;;;;;;;61.00;6.00;;;;;;;;;;5074302;28;20464;-69
2023/05/23 08:23:59;;;;;;;58.27;4.50;;;;;;;;;;5074112;28;20463;-69
2023/05/23 08:26:29;;;;;;;57.90;3.07;;;;;;;;;;5074524;28;20523;-69
2023/05/23 08:28:56;;;;;;;58.80;3.53;;;;;;;;;;5073677;28;20621;-70
2023/05/23 08:31:23;;;;;;;61.80;5.53;;;;;;;;;;5074147;28;20471;-69
2023/05/23 08:33:50;;;;;;;59.70;4.70;;;;;;;;;;5073380;28;20467;-69
2023/05/23 08:36:17;;;;;;;58.50;3.20;;;;;;;;;;5074191;28;20447;-69
2023/05/23 08:38:46;;;;;;;59.07;3.97;;;;;;;;;;5073496;28;20451;-69
2023/05/23 08:41:16;;;;;;;58.60;3.23;;;;;;;;;;5073284;28;20483;-69
2023/05/23 08:43:44;;;;;;;58.00;3.90;;;;;;;;;;5066008;28;20431;-70
2023/05/23 08:46:12;;;;;;;59.13;4.63;;;;;;;;;;5071031;28;20490;-70
2023/05/23 08:48:40;;;;;;;58.17;3.27;;;;;;;;;;5072559;28;20816;-70
2023/05/23 08:51:07;;;;;;;57.67;3.23;;;;;;;;;;5072360;28;20520;-70
2023/05/23 08:53:37;;;;;;;57.77;2.90;;;;;;;;;;5073155;28;20963;-70
2023/05/23 08:56:06;;;;;;;59.90;4.00;;;;;;;;;;5073546;28;20443;-70
2023/05/23 08:58:35;;;;;;;57.97;3.20;;;;;;;;;;5072939;28;20473;-70
2023/05/23 09:01:02;;;;;;;58.43;2.60;;;;;;;;;;5073281;28;20553;-70
2023/05/23 09:03:29;;;;;;;57.67;3.30;;;;;;;;;;5073349;28;20457;-70
2023/05/23 09:05:57;;;;;;;58.50;3.73;;;;;;;;;;5073354;28;20501;-70
2023/05/23 09:08:24;;;;;;;57.67;3.03;;;;;;;;;;5069295;28;20463;-70
2023/05/23 09:10:53;;;;;;;58.20;3.67;;;;;;;;;;5072975;28;20474;-70
2023/05/23 09:13:21;;;;;;;58.17;2.90;;;;;;;;;;5072990;28;20448;-70
2023/05/23 09:15:58;;;;;;;59.30;4.47;;;;;;;;;;5070359;28;20466;-70
2023/05/23 09:18:26;;;;;;;58.70;3.97;;;;;;;;;;5070600;28;20487;-70
2023/05/23 09:20:53;;;;;;;58.53;3.90;;;;;;;;;;5072974;28;20471;-70
2023/05/23 09:23:20;;;;;;;57.90;3.00;;;;;;;;;;5073208;28;20827;-70
2023/05/23 09:25:48;;;;;;;57.97;2.57;;;;;;;;;;5072775;28;20447;-70
2023/05/23 09:28:15;;;;;;;57.77;2.37;;;;;;;;;;5072933;28;20487;-70
2023/05/23 09:30:44;;;;;;;57.57;2.53;;;;;;;;;;5070365;28;20851;-70
2023/05/23 09:33:15;;;;;;;57.67;3.47;;;;;;;;;;5070455;28;20517;-70
2023/05/23 09:35:45;;;;;;;58.50;3.73;;;;;;;;;;5053100;28;20752;-70
2023/05/23 09:38:12;;;;;;;60.20;4.63;;;;;;;;;;5052811;28;20848;-70
2023/05/23 09:40:45;;;;;;;60.60;3.70;;;;;;;;;;5071822;28;20953;-70
2023/05/23 09:43:12;;;;;;;57.90;3.30;;;;;;;;;;5072559;28;20449;-70
2023/05/23 09:45:39;;;;;;;61.13;5.70;;;;;;;;;;5066219;28;20456;-70
2023/05/23 09:48:13;;;;;;;58.57;3.67;;;;;;;;;;5069045;28;20873;-70
2023/05/23 09:50:40;;;;;;;58.10;3.73;;;;;;;;;;5071488;28;20439;-70
2023/05/23 09:53:07;;;;;;;59.60;4.67;;;;;;;;;;5071682;28;20823;-70
2023/05/23 09:55:35;;;;;;;59.77;4.40;;;;;;;;;;5070155;28;20454;-70
2023/05/23 09:58:04;;;;;;;58.73;3.40;;;;;;;;;;5064549;28;20463;-70
2023/05/23 10:00:32;;;;;;;58.77;3.63;;;;;;;;;;5071387;28;20459;-70
2023/05/23 10:03:02;;;;;;;57.47;2.43;;;;;;;;;;5070966;28;20573;-70
2023/05/23 10:05:35;;;;;;;57.90;3.83;;;;;;;;;;5072476;28;20435;-70
2023/05/23 10:08:03;;;;;;;57.60;2.83;;;;;;;;;;5072006;28;20489;-70
2023/05/23 10:10:32;;;;;;;57.50;3.03;;;;;;;;;;5071504;28;20450;-70
2023/05/23 10:13:03;;;;;;;57.80;3.07;;;;;;;;;;5064390;28;20452;-70
2023/05/23 10:15:31;;;;;;;57.37;2.63;;;;;;;;;;5071000;28;20451;-70
2023/05/23 10:18:03;;;;;;;58.67;3.60;;;;;;;;;;5072071;28;20439;-70
2023/05/23 10:20:31;;;;;;;57.40;3.07;;;;;;;;;;5071264;28;20444;-70
2023/05/23 10:23:01;;;;;;;59.80;4.70;;;;;;;;;;5071762;28;20443;-70
2023/05/23 10:25:28;;;;;;;57.67;3.27;;;;;;;;;;5071777;28;20458;-70
2023/05/23 10:27:58;;;;;;;57.30;2.70;;;;;;;;;;5068059;28;21010;-70
2023/05/23 10:30:25;;;;;;;58.83;3.13;;;;;;;;;;5067938;28;20934;-70
2023/05/23 10:32:53;;;;;;;57.80;2.70;;;;;;;;;;5072156;28;20538;-70
2023/05/23 10:35:23;;;;;;;58.00;4.13;;;;;;;;;;5066391;28;20459;-70
2023/05/23 10:37:56;;;;;;;57.30;3.33;;;;;;;;;;5071941;28;20442;-70
2023/05/23 10:40:32;;;;;;;58.27;3.73;;;;;;;;;;5071373;28;20442;-70
2023/05/23 10:43:03;;;;;;;59.10;3.33;;;;;;;;;;5071841;28;20443;-70
2023/05/23 10:45:30;;;;;;;58.57;3.00;;;;;;;;;;5071743;28;20448;-70
2023/05/23 10:48:00;;;;;;;59.93;4.37;;;;;;;;;;5071889;28;20570;-70
2023/05/23 10:50:32;;;;;;;59.83;4.07;;;;;;;;;;5070874;28;20936;-70
2023/05/23 10:53:01;;;;;;;58.50;3.90;;;;;;;;;;5071462;28;20959;-70
2023/05/23 10:55:32;;;;;;;58.77;3.20;;;;;;;;;;5071335;28;20513;-70
2023/05/23 10:58:10;;;;;;;57.90;3.10;;;;;;;;;;5071591;28;20438;-70
2023/05/23 11:00:37;;;;;;;60.00;3.97;;;;;;;;;;5070575;28;20451;-70
2023/05/23 11:03:07;;;;;;;56.90;2.57;;;;;;;;;;5071515;28;20450;-70
2023/05/23 11:05:37;;;;;;;58.77;4.30;;;;;;;;;;5071156;28;20448;-70
2023/05/23 11:08:08;;;;;;;59.10;4.63;;;;;;;;;;5071278;28;20493;-70
2023/05/23 11:10:50;;;;;;;57.10;2.97;;;;;;;;;;5070608;28;20458;-70
2023/05/23 11:13:19;;;;;;;58.00;3.53;;;;;;;;;;5071369;28;20995;-70
2023/05/23 11:15:46;;;;;;;57.13;2.73;;;;;;;;;;5071490;28;20447;-70
2023/05/23 11:18:20;;;;;;;57.40;3.27;;;;;;;;;;5070307;28;20514;-70
2023/05/23 11:20:47;;;;;;;57.60;2.70;;;;;;;;;;5042821;28;20816;-70
2023/05/23 11:23:15;;;;;;;58.40;3.00;;;;;;;;;;5044621;28;20543;-70
2023/05/23 11:25:42;;;;;;;58.83;3.43;;;;;;;;;;5071007;28;20937;-70
2023/05/23 11:28:10;;;;;;;58.10;3.57;;;;;;;;;;5070792;28;21019;-70
2023/05/23 11:30:39;;;;;;;57.60;3.07;;;;;;;;;;5070144;28;20893;-70
2023/05/23 11:33:10;;;;;;;58.53;3.60;;;;;;;;;;5071183;28;20458;-70
2023/05/23 11:35:37;;;;;;;58.17;2.80;;;;;;;;;;5071260;28;20820;-70
2023/05/23 11:38:05;;;;;;;58.23;3.30;;;;;;;;;;5070895;28;20447;-70
2023/05/23 11:40:34;;;;;;;56.67;2.27;;;;;;;;;;5071196;28;20927;-70
2023/05/23 11:43:01;;;;;;;57.20;2.30;;;;;;;;;;5075461;28;20439;-70
2023/05/23 11:45:30;;;;;;;57.37;2.70;;;;;;;;;;5074875;28;20947;-70
2023/05/23 11:47:59;;;;;;;57.33;2.40;;;;;;;;;;5074659;28;20487;-70
2023/05/23 11:50:26;;;;;;;57.30;2.70;;;;;;;;;;5074080;28;20449;-70
2023/05/23 11:52:55;;;;;;;58.17;3.17;;;;;;;;;;5074971;28;20446;-70
2023/05/23 11:55:22;;;;;;;57.30;2.90;;;;;;;;;;5075170;28;20453;-70
2023/05/23 11:57:50;;;;;;;59.10;3.73;;;;;;;;;;5074647;28;20449;-70
2023/05/23 12:00:18;;;;;;;56.87;2.80;;;;;;;;;;5074323;28;20450;-70
2023/05/23 12:02:46;;;;;;;57.40;3.00;;;;;;;;;;5074740;28;20466;-70
2023/05/23 12:05:15;;;;;;;57.30;2.87;;;;;;;;;;5074507;28;21041;-70
2023/05/23 12:07:42;;;;;;;57.40;2.40;;;;;;;;;;5074351;28;20479;-70
2023/05/23 12:10:10;;;;;;;57.20;2.80;;;;;;;;;;5073639;28;20466;-71
2023/05/23 12:12:39;;;;;;;57.90;2.70;;;;;;;;;;5074751;28;20469;-70
2023/05/23 12:15:07;;;;;;;58.60;2.60;;;;;;;;;;5074562;28;20825;-70
2023/05/23 12:17:34;;;;;;;57.80;2.20;;;;;;;;;;5074396;28;20829;-71
2023/05/23 12:20:01;;;;;;;58.00;3.43;;;;;;;;;;5073480;28;20447;-71
2023/05/23 12:22:29;;;;;;;57.10;2.40;;;;;;;;;;5074432;28;20489;-71
2023/05/23 12:24:57;;;;;;;58.20;2.50;;;;;;;;;;5073924;28;20463;-71
2023/05/23 12:27:28;;;;;;;57.30;2.93;;;;;;;;;;5074245;28;20487;-71
2023/05/23 12:30:05;;;;;;;56.87;2.37;;;;;;;;;;5073499;28;20464;-71
2023/05/23 12:32:32;;;;;;;56.50;2.00;;;;;;;;;;5074038;28;20471;-71
2023/05/23 12:34:59;;;;;;;57.97;2.90;;;;;;;;;;5073927;28;20447;-70
2023/05/23 12:37:28;;;;;;;57.10;2.80;;;;;;;;;;5074350;28;20440;-71
2023/05/23 12:39:57;;;;;;;56.83;2.20;;;;;;;;;;5073239;28;20475;-71
2023/05/23 12:42:24;;;;;;;57.27;2.20;;;;;;;;;;5073885;28;20470;-71
2023/05/23 12:44:54;;;;;;;57.50;2.57;;;;;;;;;;5073824;28;20453;-71
2023/05/23 12:47:21;;;;;;;57.30;2.70;;;;;;;;;;5073917;28;20491;-70
2023/05/23 12:49:48;;;;;;;58.23;2.77;;;;;;;;;;5072885;28;20822;-71
2023/05/23 12:52:15;;;;;;;57.57;3.07;;;;;;;;;;5073366;28;20467;-71
2023/05/23 12:54:43;;;;;;;57.67;2.73;;;;;;;;;;5073742;28;20936;-70
2023/05/23 12:57:11;;;;;;;57.00;2.53;;;;;;;;;;5073962;28;20448;-70
2023/05/23 12:59:38;;;;;;;58.00;3.17;;;;;;;;;;5073235;28;20447;-71
2023/05/23 13:02:06;;;;;;;57.33;2.30;;;;;;;;;;5073665;28;20467;-71
2023/05/23 13:04:33;;;;;;;57.03;2.47;;;;;;;;;;5073590;28;20443;-71
2023/05/23 13:07:00;;;;;;;57.40;2.80;;;;;;;;;;5073453;28;20465;-71
2023/05/23 13:09:27;;;;;;;56.83;2.17;;;;;;;;;;5072844;28;20479;-71
2023/05/23 13:11:55;;;;;;;56.67;1.90;;;;;;;;;;5073246;28;20920;-71
2023/05/23 13:14:23;;;;;;;56.57;2.20;;;;;;;;;;5073713;28;20451;-71
2023/05/23 13:16:51;;;;;;;56.90;2.40;;;;;;;;;;5073174;28;20444;-71
2023/05/23 13:19:18;;;;;;;56.77;2.60;;;;;;;;;;5072313;28;20451;-69
2023/05/23 13:21:45;;;;;;;57.57;2.87;;;;;;;;;;5073050;28;20467;-71
2023/05/23 13:24:12;;;;;;;57.07;2.50;;;;;;;;;;5073011;28;20459;-71
2023/05/23 13:26:39;;;;;;;57.80;2.70;;;;;;;;;;5073287;28;20456;-71
2023/05/23 13:29:06;;;;;;;57.60;2.83;;;;;;;;;;5072218;28;20870;-70
2023/05/23 13:31:35;;;;;;;58.47;3.00;;;;;;;;;;5071749;28;20469;-71
2023/05/23 13:34:02;;;;;;;57.30;2.30;;;;;;;;;;5072993;28;20450;-71
2023/05/23 13:36:29;;;;;;;57.60;2.50;;;;;;;;;;5072773;28;20447;-71
2023/05/23 13:38:56;;;;;;;57.50;2.40;;;;;;;;;;5072042;28;20473;-71
2023/05/23 13:41:23;;;;;;;57.87;2.97;;;;;;;;;;5072693;28;20478;-71
2023/05/23 13:43:50;;;;;;;57.30;2.17;;;;;;;;;;5072626;28;20455;-71
2023/05/23 13:46:17;;;;;;;57.20;2.30;;;;;;;;;;5072840;28;20477;-71
2023/05/23 13:48:46;;;;;;;57.37;2.67;;;;;;;;;;5071952;28;20483;-71
2023/05/23 13:51:13;;;;;;;57.10;2.10;;;;;;;;;;5072724;28;20474;-71
2023/05/23 13:53:40;;;;;;;57.23;2.33;;;;;;;;;;5072677;28;20454;-70
2023/05/23 13:56:08;;;;;;;58.63;3.77;;;;;;;;;;5072397;28;20452;-71
2023/05/23 13:58:35;;;;;;;57.40;2.77;;;;;;;;;;5071738;28;20447;-68
2023/05/23 14:01:02;;;;;;;57.50;2.57;;;;;;;;;;5072381;28;20475;-68
2023/05/23 14:03:29;;;;;;;57.30;2.50;;;;;;;;;;5072096;28;20497;-70
2023/05/23 14:05:58;;;;;;;57.10;2.20;;;;;;;;;;5071780;28;20542;-70
2023/05/23 14:08:25;;;;;;;57.40;2.20;;;;;;;;;;5072244;28;20489;-71
2023/05/23 14:10:52;;;;;;;57.17;2.40;;;;;;;;;;5071453;28;20476;-71
2023/05/23 14:13:20;;;;;;;58.63;2.83;;;;;;;;;;5072044;28;20982;-71
2023/05/23 14:15:47;;;;;;;57.63;2.50;;;;;;;;;;5072382;28;20452;-71
2023/05/23 14:18:14;;;;;;;57.80;2.60;;;;;;;;;;5072076;28;20890;-71
2023/05/23 14:20:41;;;;;;;57.83;2.90;;;;;;;;;;5071466;28;20454;-71
2023/05/23 14:23:10;;;;;;;57.67;2.97;;;;;;;;;;5071890;28;20888;-71
2023/05/23 14:25:45;;;;;;;57.13;2.13;;;;;;;;;;5088567;27;20574;-70
2023/05/23 14:28:13;;;;;;;57.27;2.13;;;;;;;;;;5088788;28;20930;-70
2023/05/23 14:30:40;;;;;;;57.10;2.53;;;;;;;;;;5088262;28;20443;-70
2023/05/23 14:33:07;;;;;;;57.37;2.30;;;;;;;;;;5088721;28;20447;-70
2023/05/23 14:35:35;;;;;;;56.90;2.13;;;;;;;;;;5088504;28;20443;-70